sensor_id;sensor_type;location;lat;lon;timestamp;P1;durP1;ratioP1;P2;durP2;ratioP2
54909;SDS011;63189;51.240;9.964;2022-11-20T00:01:25;21.50;;;12.38;;
54909;SDS011;63189;51.240;9.964;2022-11-20T00:03:52;25.98;;;15.40;;
54909;SDS011;63189;51.240;9.964;2022-11-20T00:06:18;28.10;;;14.95;;
54909;SDS011;63189;51.240;9.964;2022-11-20T00:08:45;23.05;;;13.63;;
54909;SDS011;63189;51.240;9.964;2022-11-20T00:11:12;23.50;;;13.32;;
54909;SDS011;63189;51.240;9.964;2022-11-20T00:13:39;17.90;;;10.98;;
54909;SDS011;63189;51.240;9.964;2022-11-20T00:16:05;22.83;;;13.57;;
54909;SDS011;63189;51.240;9.964;2022-11-20T00:18:32;24.02;;;15.40;;
54909;SDS011;63189;51.240;9.964;2022-11-20T00:21:02;22.20;;;13.38;;
54909;SDS011;63189;51.240;9.964;2022-11-20T00:23:28;24.20;;;14.82;;
54909;SDS011;63189;51.240;9.964;2022-11-20T00:25:53;21.05;;;12.98;;
54909;SDS011;63189;51.240;9.964;2022-11-20T00:28:19;32.90;;;19.75;;
54909;SDS011;63189;51.240;9.964;2022-11-20T00:30:44;22.88;;;13.07;;
54909;SDS011;63189;51.240;9.964;2022-11-20T00:33:09;21.75;;;13.25;;
54909;SDS011;63189;51.240;9.964;2022-11-20T00:35:34;19.45;;;12.20;;
54909;SDS011;63189;51.240;9.964;2022-11-20T00:38:00;20.58;;;13.10;;
54909;SDS011;63189;51.240;9.964;2022-11-20T00:40:25;22.55;;;13.40;;
54909;SDS011;63189;51.240;9.964;2022-11-20T00:42:50;21.95;;;13.18;;
54909;SDS011;63189;51.240;9.964;2022-11-20T00:45:16;22.65;;;13.27;;
54909;SDS011;63189;51.240;9.964;2022-11-20T00:47:41;23.75;;;13.80;;
54909;SDS011;63189;51.240;9.964;2022-11-20T00:50:06;28.25;;;14.73;;
54909;SDS011;63189;51.240;9.964;2022-11-20T00:52:32;30.05;;;13.57;;
54909;SDS011;63189;51.240;9.964;2022-11-20T00:54:57;76.30;;;17.02;;
54909;SDS011;63189;51.240;9.964;2022-11-20T00:57:23;43.50;;;15.10;;
54909;SDS011;63189;51.240;9.964;2022-11-20T00:59:48;25.38;;;13.98;;
54909;SDS011;63189;51.240;9.964;2022-11-20T01:02:13;21.67;;;12.68;;
54909;SDS011;63189;51.240;9.964;2022-11-20T01:04:41;25.83;;;14.30;;
54909;SDS011;63189;51.240;9.964;2022-11-20T01:07:06;21.95;;;13.25;;
54909;SDS011;63189;51.240;9.964;2022-11-20T01:09:32;23.63;;;13.38;;
54909;SDS011;63189;51.240;9.964;2022-11-20T01:11:58;22.90;;;13.30;;
54909;SDS011;63189;51.240;9.964;2022-11-20T01:14:24;26.23;;;14.35;;
54909;SDS011;63189;51.240;9.964;2022-11-20T01:16:50;28.38;;;15.70;;
54909;SDS011;63189;51.240;9.964;2022-11-20T01:19:17;30.70;;;15.63;;
54909;SDS011;63189;51.240;9.964;2022-11-20T01:21:44;26.92;;;14.93;;
54909;SDS011;63189;51.240;9.964;2022-11-20T01:24:13;22.85;;;13.70;;
54909;SDS011;63189;51.240;9.964;2022-11-20T01:26:40;25.67;;;15.00;;
54909;SDS011;63189;51.240;9.964;2022-11-20T01:29:07;25.83;;;14.52;;
54909;SDS011;63189;51.240;9.964;2022-11-20T01:31:37;24.20;;;13.55;;
54909;SDS011;63189;51.240;9.964;2022-11-20T01:34:04;28.48;;;13.65;;
54909;SDS011;63189;51.240;9.964;2022-11-20T01:36:32;29.65;;;15.18;;
54909;SDS011;63189;51.240;9.964;2022-11-20T01:39:01;25.42;;;14.02;;
54909;SDS011;63189;51.240;9.964;2022-11-20T01:41:30;26.40;;;13.70;;
54909;SDS011;63189;51.240;9.964;2022-11-20T01:44:16;28.15;;;15.98;;
54909;SDS011;63189;51.240;9.964;2022-11-20T01:49:19;25.17;;;14.10;;
54909;SDS011;63189;51.240;9.964;2022-11-20T01:54:16;44.22;;;17.15;;
54909;SDS011;63189;51.240;9.964;2022-11-20T01:56:44;36.40;;;15.93;;
54909;SDS011;63189;51.240;9.964;2022-11-20T01:59:13;35.60;;;15.60;;
54909;SDS011;63189;51.240;9.964;2022-11-20T02:01:42;27.58;;;14.93;;
54909;SDS011;63189;51.240;9.964;2022-11-20T02:04:08;25.08;;;14.02;;
54909;SDS011;63189;51.240;9.964;2022-11-20T02:06:42;37.22;;;16.67;;
54909;SDS011;63189;51.240;9.964;2022-11-20T02:09:14;27.00;;;15.10;;
54909;SDS011;63189;51.240;9.964;2022-11-20T02:11:40;28.42;;;16.02;;
54909;SDS011;63189;51.240;9.964;2022-11-20T02:14:05;27.50;;;15.55;;
54909;SDS011;63189;51.240;9.964;2022-11-20T02:16:32;26.23;;;15.40;;
54909;SDS011;63189;51.240;9.964;2022-11-20T02:19:02;25.88;;;14.95;;
54909;SDS011;63189;51.240;9.964;2022-11-20T02:24:14;24.85;;;14.68;;
54909;SDS011;63189;51.240;9.964;2022-11-20T02:29:48;22.30;;;12.95;;
54909;SDS011;63189;51.240;9.964;2022-11-20T02:32:18;24.13;;;13.95;;
54909;SDS011;63189;51.240;9.964;2022-11-20T02:34:57;20.52;;;12.80;;
54909;SDS011;63189;51.240;9.964;2022-11-20T02:37:22;26.50;;;14.98;;
54909;SDS011;63189;51.240;9.964;2022-11-20T02:39:52;25.65;;;14.68;;
54909;SDS011;63189;51.240;9.964;2022-11-20T02:42:18;23.45;;;13.07;;
54909;SDS011;63189;51.240;9.964;2022-11-20T02:44:43;27.00;;;14.65;;
54909;SDS011;63189;51.240;9.964;2022-11-20T02:47:09;27.13;;;15.30;;
54909;SDS011;63189;51.240;9.964;2022-11-20T02:49:34;36.22;;;17.25;;
54909;SDS011;63189;51.240;9.964;2022-11-20T02:51:59;24.15;;;13.98;;
54909;SDS011;63189;51.240;9.964;2022-11-20T02:54:25;27.83;;;15.63;;
54909;SDS011;63189;51.240;9.964;2022-11-20T02:56:50;25.92;;;14.98;;
54909;SDS011;63189;51.240;9.964;2022-11-20T02:59:16;39.15;;;20.67;;
54909;SDS011;63189;51.240;9.964;2022-11-20T03:01:41;31.02;;;14.65;;
54909;SDS011;63189;51.240;9.964;2022-11-20T03:04:07;27.63;;;14.20;;
54909;SDS011;63189;51.240;9.964;2022-11-20T03:06:33;25.95;;;13.25;;
54909;SDS011;63189;51.240;9.964;2022-11-20T03:08:58;28.67;;;15.57;;
54909;SDS011;63189;51.240;9.964;2022-11-20T03:11:23;27.85;;;14.90;;
54909;SDS011;63189;51.240;9.964;2022-11-20T03:13:49;32.58;;;17.63;;
54909;SDS011;63189;51.240;9.964;2022-11-20T03:16:16;28.67;;;15.35;;
54909;SDS011;63189;51.240;9.964;2022-11-20T03:18:43;36.45;;;17.50;;
54909;SDS011;63189;51.240;9.964;2022-11-20T03:21:09;32.75;;;16.63;;
54909;SDS011;63189;51.240;9.964;2022-11-20T03:23:36;31.23;;;15.88;;
54909;SDS011;63189;51.240;9.964;2022-11-20T03:26:12;33.38;;;16.83;;
54909;SDS011;63189;51.240;9.964;2022-11-20T03:28:53;35.83;;;16.63;;
54909;SDS011;63189;51.240;9.964;2022-11-20T03:31:21;61.60;;;18.20;;
54909;SDS011;63189;51.240;9.964;2022-11-20T03:33:48;36.60;;;17.27;;
54909;SDS011;63189;51.240;9.964;2022-11-20T03:36:15;34.83;;;15.68;;
54909;SDS011;63189;51.240;9.964;2022-11-20T03:38:41;70.22;;;17.63;;
54909;SDS011;63189;51.240;9.964;2022-11-20T03:41:08;32.63;;;15.60;;
54909;SDS011;63189;51.240;9.964;2022-11-20T03:43:36;74.97;;;18.08;;
54909;SDS011;63189;51.240;9.964;2022-11-20T03:46:02;48.67;;;17.10;;
54909;SDS011;63189;51.240;9.964;2022-11-20T03:48:28;119.25;;;21.23;;
54909;SDS011;63189;51.240;9.964;2022-11-20T03:53:54;79.93;;;18.65;;
54909;SDS011;63189;51.240;9.964;2022-11-20T03:56:25;65.05;;;16.80;;
54909;SDS011;63189;51.240;9.964;2022-11-20T03:58:52;65.05;;;17.65;;
54909;SDS011;63189;51.240;9.964;2022-11-20T04:01:19;80.25;;;18.00;;
54909;SDS011;63189;51.240;9.964;2022-11-20T04:03:45;60.03;;;18.15;;
54909;SDS011;63189;51.240;9.964;2022-11-20T04:06:16;80.93;;;19.45;;
54909;SDS011;63189;51.240;9.964;2022-11-20T04:08:43;98.35;;;17.65;;
54909;SDS011;63189;51.240;9.964;2022-11-20T04:13:34;106.68;;;18.08;;
54909;SDS011;63189;51.240;9.964;2022-11-20T04:15:59;47.25;;;16.15;;
54909;SDS011;63189;51.240;9.964;2022-11-20T04:18:24;90.78;;;18.40;;
54909;SDS011;63189;51.240;9.964;2022-11-20T04:20:50;48.28;;;16.33;;
54909;SDS011;63189;51.240;9.964;2022-11-20T04:23:15;37.17;;;15.27;;
54909;SDS011;63189;51.240;9.964;2022-11-20T04:25:40;47.33;;;15.38;;
54909;SDS011;63189;51.240;9.964;2022-11-20T04:28:05;26.55;;;13.13;;
54909;SDS011;63189;51.240;9.964;2022-11-20T04:30:31;39.35;;;15.30;;
54909;SDS011;63189;51.240;9.964;2022-11-20T04:32:56;34.80;;;15.85;;
54909;SDS011;63189;51.240;9.964;2022-11-20T04:35:21;44.40;;;15.57;;
54909;SDS011;63189;51.240;9.964;2022-11-20T04:37:46;44.47;;;17.63;;
54909;SDS011;63189;51.240;9.964;2022-11-20T04:40:12;32.33;;;15.25;;
54909;SDS011;63189;51.240;9.964;2022-11-20T04:42:37;39.28;;;17.85;;
54909;SDS011;63189;51.240;9.964;2022-11-20T04:45:03;30.35;;;16.10;;
54909;SDS011;63189;51.240;9.964;2022-11-20T04:47:28;42.63;;;15.73;;
54909;SDS011;63189;51.240;9.964;2022-11-20T04:49:53;31.40;;;14.48;;
54909;SDS011;63189;51.240;9.964;2022-11-20T04:52:19;35.17;;;15.45;;
54909;SDS011;63189;51.240;9.964;2022-11-20T04:54:44;38.92;;;15.85;;
54909;SDS011;63189;51.240;9.964;2022-11-20T04:57:09;55.47;;;18.35;;
54909;SDS011;63189;51.240;9.964;2022-11-20T04:59:34;39.22;;;17.23;;
54909;SDS011;63189;51.240;9.964;2022-11-20T05:02:00;33.88;;;16.50;;
54909;SDS011;63189;51.240;9.964;2022-11-20T05:04:25;35.85;;;16.83;;
54909;SDS011;63189;51.240;9.964;2022-11-20T05:06:50;38.97;;;17.80;;
54909;SDS011;63189;51.240;9.964;2022-11-20T05:09:16;43.75;;;17.33;;
54909;SDS011;63189;51.240;9.964;2022-11-20T05:11:41;34.00;;;16.20;;
54909;SDS011;63189;51.240;9.964;2022-11-20T05:14:06;38.40;;;18.02;;
54909;SDS011;63189;51.240;9.964;2022-11-20T05:16:33;36.40;;;16.95;;
54909;SDS011;63189;51.240;9.964;2022-11-20T05:18:59;38.58;;;18.55;;
54909;SDS011;63189;51.240;9.964;2022-11-20T05:21:25;36.45;;;18.65;;
54909;SDS011;63189;51.240;9.964;2022-11-20T05:23:50;30.23;;;15.32;;
54909;SDS011;63189;51.240;9.964;2022-11-20T05:26:16;39.92;;;19.40;;
54909;SDS011;63189;51.240;9.964;2022-11-20T05:28:44;37.17;;;18.17;;
54909;SDS011;63189;51.240;9.964;2022-11-20T05:31:13;37.00;;;18.95;;
54909;SDS011;63189;51.240;9.964;2022-11-20T05:33:41;38.05;;;18.50;;
54909;SDS011;63189;51.240;9.964;2022-11-20T05:36:07;36.58;;;17.45;;
54909;SDS011;63189;51.240;9.964;2022-11-20T05:38:34;36.47;;;18.45;;
54909;SDS011;63189;51.240;9.964;2022-11-20T05:41:06;36.97;;;17.10;;
54909;SDS011;63189;51.240;9.964;2022-11-20T05:43:37;42.22;;;20.45;;
54909;SDS011;63189;51.240;9.964;2022-11-20T05:46:05;43.45;;;20.83;;
54909;SDS011;63189;51.240;9.964;2022-11-20T05:48:32;42.33;;;20.02;;
54909;SDS011;63189;51.240;9.964;2022-11-20T05:50:58;34.75;;;17.05;;
54909;SDS011;63189;51.240;9.964;2022-11-20T05:53:27;35.22;;;17.08;;
54909;SDS011;63189;51.240;9.964;2022-11-20T05:55:57;40.35;;;19.25;;
54909;SDS011;63189;51.240;9.964;2022-11-20T05:58:23;43.72;;;20.15;;
54909;SDS011;63189;51.240;9.964;2022-11-20T06:00:48;36.65;;;17.98;;
54909;SDS011;63189;51.240;9.964;2022-11-20T06:03:14;40.40;;;19.70;;
54909;SDS011;63189;51.240;9.964;2022-11-20T06:05:39;39.17;;;18.92;;
54909;SDS011;63189;51.240;9.964;2022-11-20T06:08:04;40.63;;;17.63;;
54909;SDS011;63189;51.240;9.964;2022-11-20T06:10:29;39.35;;;19.13;;
54909;SDS011;63189;51.240;9.964;2022-11-20T06:12:57;44.05;;;20.13;;
54909;SDS011;63189;51.240;9.964;2022-11-20T06:15:22;43.83;;;20.95;;
54909;SDS011;63189;51.240;9.964;2022-11-20T06:17:51;39.58;;;18.02;;
54909;SDS011;63189;51.240;9.964;2022-11-20T06:20:17;38.25;;;19.27;;
54909;SDS011;63189;51.240;9.964;2022-11-20T06:22:42;38.70;;;18.13;;
54909;SDS011;63189;51.240;9.964;2022-11-20T06:25:07;40.28;;;19.20;;
54909;SDS011;63189;51.240;9.964;2022-11-20T06:27:33;39.53;;;18.15;;
54909;SDS011;63189;51.240;9.964;2022-11-20T06:29:58;40.20;;;19.90;;
54909;SDS011;63189;51.240;9.964;2022-11-20T06:32:23;40.08;;;18.83;;
54909;SDS011;63189;51.240;9.964;2022-11-20T06:34:49;40.72;;;19.25;;
54909;SDS011;63189;51.240;9.964;2022-11-20T06:37:14;45.53;;;21.33;;
54909;SDS011;63189;51.240;9.964;2022-11-20T06:39:39;37.38;;;17.92;;
54909;SDS011;63189;51.240;9.964;2022-11-20T06:42:04;36.13;;;17.85;;
54909;SDS011;63189;51.240;9.964;2022-11-20T06:44:30;45.38;;;20.52;;
54909;SDS011;63189;51.240;9.964;2022-11-20T06:46:55;36.35;;;17.92;;
54909;SDS011;63189;51.240;9.964;2022-11-20T06:49:20;36.42;;;18.10;;
54909;SDS011;63189;51.240;9.964;2022-11-20T06:51:46;42.17;;;20.35;;
54909;SDS011;63189;51.240;9.964;2022-11-20T06:54:11;42.65;;;19.83;;
54909;SDS011;63189;51.240;9.964;2022-11-20T06:56:36;39.40;;;20.95;;
54909;SDS011;63189;51.240;9.964;2022-11-20T06:59:05;34.47;;;17.02;;
54909;SDS011;63189;51.240;9.964;2022-11-20T07:01:31;40.58;;;20.10;;
54909;SDS011;63189;51.240;9.964;2022-11-20T07:03:56;40.58;;;19.92;;
54909;SDS011;63189;51.240;9.964;2022-11-20T07:06:22;39.30;;;19.15;;
54909;SDS011;63189;51.240;9.964;2022-11-20T07:08:47;43.17;;;20.48;;
54909;SDS011;63189;51.240;9.964;2022-11-20T07:11:12;43.80;;;20.50;;
54909;SDS011;63189;51.240;9.964;2022-11-20T07:13:38;39.92;;;20.02;;
54909;SDS011;63189;51.240;9.964;2022-11-20T07:16:04;42.45;;;19.92;;
54909;SDS011;63189;51.240;9.964;2022-11-20T07:18:31;43.92;;;20.45;;
54909;SDS011;63189;51.240;9.964;2022-11-20T07:21:04;41.20;;;21.05;;
54909;SDS011;63189;51.240;9.964;2022-11-20T07:23:31;41.90;;;20.40;;
54909;SDS011;63189;51.240;9.964;2022-11-20T07:25:56;41.50;;;19.55;;
54909;SDS011;63189;51.240;9.964;2022-11-20T07:28:22;44.05;;;20.27;;
54909;SDS011;63189;51.240;9.964;2022-11-20T07:30:51;43.33;;;19.27;;
54909;SDS011;63189;51.240;9.964;2022-11-20T07:33:17;45.65;;;22.00;;
54909;SDS011;63189;51.240;9.964;2022-11-20T07:35:42;41.85;;;20.92;;
54909;SDS011;63189;51.240;9.964;2022-11-20T07:38:08;45.20;;;21.20;;
54909;SDS011;63189;51.240;9.964;2022-11-20T07:40:33;42.47;;;20.73;;
54909;SDS011;63189;51.240;9.964;2022-11-20T07:42:58;43.72;;;20.85;;
54909;SDS011;63189;51.240;9.964;2022-11-20T07:45:23;59.90;;;27.73;;
54909;SDS011;63189;51.240;9.964;2022-11-20T07:47:49;49.75;;;23.13;;
54909;SDS011;63189;51.240;9.964;2022-11-20T07:50:14;54.58;;;24.17;;
54909;SDS011;63189;51.240;9.964;2022-11-20T07:52:40;54.28;;;25.38;;
54909;SDS011;63189;51.240;9.964;2022-11-20T07:55:06;54.83;;;23.38;;
54909;SDS011;63189;51.240;9.964;2022-11-20T07:57:32;48.03;;;23.00;;
54909;SDS011;63189;51.240;9.964;2022-11-20T07:59:57;46.45;;;22.58;;
54909;SDS011;63189;51.240;9.964;2022-11-20T08:02:22;53.65;;;24.45;;
54909;SDS011;63189;51.240;9.964;2022-11-20T08:04:48;53.47;;;24.05;;
54909;SDS011;63189;51.240;9.964;2022-11-20T08:07:13;55.95;;;22.52;;
54909;SDS011;63189;51.240;9.964;2022-11-20T08:09:38;46.03;;;21.83;;
54909;SDS011;63189;51.240;9.964;2022-11-20T08:12:04;47.05;;;22.48;;
54909;SDS011;63189;51.240;9.964;2022-11-20T08:14:48;44.10;;;21.83;;
54909;SDS011;63189;51.240;9.964;2022-11-20T08:17:13;52.10;;;22.60;;
54909;SDS011;63189;51.240;9.964;2022-11-20T08:19:38;53.70;;;25.45;;
54909;SDS011;63189;51.240;9.964;2022-11-20T08:22:04;45.45;;;23.02;;
54909;SDS011;63189;51.240;9.964;2022-11-20T08:24:29;51.10;;;23.25;;
54909;SDS011;63189;51.240;9.964;2022-11-20T08:26:56;59.35;;;26.25;;
54909;SDS011;63189;51.240;9.964;2022-11-20T08:29:22;63.42;;;28.92;;
54909;SDS011;63189;51.240;9.964;2022-11-20T08:31:48;59.88;;;27.30;;
54909;SDS011;63189;51.240;9.964;2022-11-20T08:34:13;68.72;;;30.85;;
54909;SDS011;63189;51.240;9.964;2022-11-20T08:36:38;57.20;;;26.30;;
54909;SDS011;63189;51.240;9.964;2022-11-20T08:39:04;49.70;;;21.08;;
54909;SDS011;63189;51.240;9.964;2022-11-20T08:41:29;51.72;;;21.98;;
54909;SDS011;63189;51.240;9.964;2022-11-20T08:44:01;46.83;;;19.58;;
54909;SDS011;63189;51.240;9.964;2022-11-20T08:46:31;33.35;;;14.80;;
54909;SDS011;63189;51.240;9.964;2022-11-20T08:48:58;30.85;;;12.77;;
54909;SDS011;63189;51.240;9.964;2022-11-20T08:51:24;27.73;;;12.98;;
54909;SDS011;63189;51.240;9.964;2022-11-20T08:53:49;30.27;;;13.18;;
54909;SDS011;63189;51.240;9.964;2022-11-20T08:56:15;26.70;;;12.15;;
54909;SDS011;63189;51.240;9.964;2022-11-20T08:58:41;27.00;;;12.45;;
54909;SDS011;63189;51.240;9.964;2022-11-20T09:01:07;31.05;;;13.43;;
54909;SDS011;63189;51.240;9.964;2022-11-20T09:03:32;23.50;;;10.70;;
54909;SDS011;63189;51.240;9.964;2022-11-20T09:06:01;28.35;;;13.20;;
54909;SDS011;63189;51.240;9.964;2022-11-20T09:08:29;20.80;;;10.60;;
54909;SDS011;63189;51.240;9.964;2022-11-20T09:10:55;24.50;;;12.55;;
54909;SDS011;63189;51.240;9.964;2022-11-20T09:13:21;19.15;;;10.05;;
54909;SDS011;63189;51.240;9.964;2022-11-20T09:15:52;20.08;;;9.88;;
54909;SDS011;63189;51.240;9.964;2022-11-20T09:18:21;19.25;;;9.90;;
54909;SDS011;63189;51.240;9.964;2022-11-20T09:20:47;19.27;;;9.77;;
54909;SDS011;63189;51.240;9.964;2022-11-20T09:23:13;19.52;;;10.02;;
54909;SDS011;63189;51.240;9.964;2022-11-20T09:25:39;22.02;;;10.40;;
54909;SDS011;63189;51.240;9.964;2022-11-20T09:28:04;21.55;;;10.32;;
54909;SDS011;63189;51.240;9.964;2022-11-20T09:30:30;29.23;;;13.25;;
54909;SDS011;63189;51.240;9.964;2022-11-20T09:32:55;34.25;;;15.02;;
54909;SDS011;63189;51.240;9.964;2022-11-20T09:35:21;30.25;;;14.02;;
54909;SDS011;63189;51.240;9.964;2022-11-20T09:37:46;32.65;;;13.45;;
54909;SDS011;63189;51.240;9.964;2022-11-20T09:40:17;23.40;;;11.93;;
54909;SDS011;63189;51.240;9.964;2022-11-20T09:50:41;25.48;;;12.77;;
54909;SDS011;63189;51.240;9.964;2022-11-20T09:55:38;27.85;;;12.93;;
54909;SDS011;63189;51.240;9.964;2022-11-20T09:58:13;29.25;;;12.77;;
54909;SDS011;63189;51.240;9.964;2022-11-20T10:00:47;27.17;;;12.48;;
54909;SDS011;63189;51.240;9.964;2022-11-20T10:03:16;24.05;;;11.10;;
54909;SDS011;63189;51.240;9.964;2022-11-20T10:05:47;20.00;;;10.20;;
54909;SDS011;63189;51.240;9.964;2022-11-20T10:08:22;23.60;;;11.57;;
54909;SDS011;63189;51.240;9.964;2022-11-20T10:10:54;29.33;;;15.10;;
54909;SDS011;63189;51.240;9.964;2022-11-20T10:13:48;28.15;;;14.40;;
54909;SDS011;63189;51.240;9.964;2022-11-20T10:27:02;23.42;;;13.35;;
54909;SDS011;63189;51.240;9.964;2022-11-20T10:29:47;25.85;;;12.98;;
54909;SDS011;63189;51.240;9.964;2022-11-20T10:32:28;22.95;;;12.15;;
54909;SDS011;63189;51.240;9.964;2022-11-20T10:35:03;24.95;;;13.13;;
54909;SDS011;63189;51.240;9.964;2022-11-20T10:37:57;24.98;;;13.32;;
54909;SDS011;63189;51.240;9.964;2022-11-20T10:43:12;25.23;;;13.13;;
54909;SDS011;63189;51.240;9.964;2022-11-20T10:45:53;24.10;;;12.68;;
54909;SDS011;63189;51.240;9.964;2022-11-20T10:48:25;26.20;;;13.30;;
54909;SDS011;63189;51.240;9.964;2022-11-20T10:58:47;25.30;;;13.73;;
54909;SDS011;63189;51.240;9.964;2022-11-20T11:01:16;27.17;;;14.23;;
54909;SDS011;63189;51.240;9.964;2022-11-20T11:03:43;27.27;;;13.15;;
54909;SDS011;63189;51.240;9.964;2022-11-20T11:06:23;29.33;;;14.15;;
54909;SDS011;63189;51.240;9.964;2022-11-20T11:08:58;28.20;;;14.65;;
54909;SDS011;63189;51.240;9.964;2022-11-20T11:11:29;31.67;;;14.00;;
54909;SDS011;63189;51.240;9.964;2022-11-20T11:16:32;31.77;;;15.20;;
54909;SDS011;63189;51.240;9.964;2022-11-20T11:19:14;27.95;;;15.02;;
54909;SDS011;63189;51.240;9.964;2022-11-20T11:21:45;30.00;;;14.45;;
54909;SDS011;63189;51.240;9.964;2022-11-20T11:24:30;28.00;;;13.80;;
54909;SDS011;63189;51.240;9.964;2022-11-20T11:26:57;29.45;;;15.40;;
54909;SDS011;63189;51.240;9.964;2022-11-20T11:29:29;25.10;;;13.10;;
54909;SDS011;63189;51.240;9.964;2022-11-20T11:32:11;25.70;;;13.18;;
54909;SDS011;63189;51.240;9.964;2022-11-20T11:34:38;20.92;;;11.45;;
54909;SDS011;63189;51.240;9.964;2022-11-20T11:37:04;23.27;;;11.60;;
54909;SDS011;63189;51.240;9.964;2022-11-20T11:39:36;17.92;;;10.45;;
54909;SDS011;63189;51.240;9.964;2022-11-20T11:42:07;19.80;;;10.50;;
54909;SDS011;63189;51.240;9.964;2022-11-20T11:44:38;17.27;;;10.13;;
54909;SDS011;63189;51.240;9.964;2022-11-20T11:47:32;20.05;;;11.20;;
54909;SDS011;63189;51.240;9.964;2022-11-20T11:52:42;23.95;;;11.95;;
54909;SDS011;63189;51.240;9.964;2022-11-20T11:55:33;21.15;;;10.82;;
54909;SDS011;63189;51.240;9.964;2022-11-20T12:00:37;17.55;;;10.23;;
54909;SDS011;63189;51.240;9.964;2022-11-20T12:06:10;19.92;;;11.18;;
54909;SDS011;63189;51.240;9.964;2022-11-20T12:08:48;18.98;;;10.25;;
54909;SDS011;63189;51.240;9.964;2022-11-20T12:11:20;18.02;;;10.23;;
54909;SDS011;63189;51.240;9.964;2022-11-20T12:14:22;15.73;;;8.88;;
54909;SDS011;63189;51.240;9.964;2022-11-20T12:16:55;18.67;;;10.02;;
54909;SDS011;63189;51.240;9.964;2022-11-20T12:19:22;19.73;;;10.63;;
54909;SDS011;63189;51.240;9.964;2022-11-20T12:21:52;17.90;;;10.15;;
54909;SDS011;63189;51.240;9.964;2022-11-20T12:30:22;17.83;;;9.55;;
54909;SDS011;63189;51.240;9.964;2022-11-20T12:33:12;17.55;;;10.02;;
54909;SDS011;63189;51.240;9.964;2022-11-20T12:56:02;16.92;;;9.50;;
54909;SDS011;63189;51.240;9.964;2022-11-20T13:01:00;12.90;;;7.95;;
54909;SDS011;63189;51.240;9.964;2022-11-20T13:06:40;16.20;;;8.48;;
54909;SDS011;63189;51.240;9.964;2022-11-20T13:09:08;14.15;;;8.40;;
54909;SDS011;63189;51.240;9.964;2022-11-20T13:19:17;16.65;;;9.35;;
54909;SDS011;63189;51.240;9.964;2022-11-20T13:21:46;16.73;;;9.40;;
54909;SDS011;63189;51.240;9.964;2022-11-20T13:24:22;17.55;;;10.38;;
54909;SDS011;63189;51.240;9.964;2022-11-20T13:27:02;15.60;;;9.30;;
54909;SDS011;63189;51.240;9.964;2022-11-20T13:29:31;15.45;;;8.98;;
54909;SDS011;63189;51.240;9.964;2022-11-20T13:32:04;16.05;;;9.27;;
54909;SDS011;63189;51.240;9.964;2022-11-20T13:34:51;17.13;;;10.15;;
54909;SDS011;63189;51.240;9.964;2022-11-20T13:42:43;16.75;;;9.48;;
54909;SDS011;63189;51.240;9.964;2022-11-20T13:45:23;17.27;;;9.70;;
54909;SDS011;63189;51.240;9.964;2022-11-20T13:47:51;15.63;;;8.63;;
54909;SDS011;63189;51.240;9.964;2022-11-20T13:50:19;17.58;;;9.63;;
54909;SDS011;63189;51.240;9.964;2022-11-20T13:52:50;16.08;;;9.68;;
54909;SDS011;63189;51.240;9.964;2022-11-20T13:55:26;15.38;;;9.05;;
54909;SDS011;63189;51.240;9.964;2022-11-20T14:00:48;13.98;;;8.07;;
54909;SDS011;63189;51.240;9.964;2022-11-20T14:03:23;15.40;;;8.65;;
54909;SDS011;63189;51.240;9.964;2022-11-20T14:05:57;14.75;;;8.88;;
54909;SDS011;63189;51.240;9.964;2022-11-20T14:08:41;14.00;;;8.05;;
54909;SDS011;63189;51.240;9.964;2022-11-20T14:11:17;13.35;;;7.55;;
54909;SDS011;63189;51.240;9.964;2022-11-20T14:13:54;14.02;;;7.78;;
54909;SDS011;63189;51.240;9.964;2022-11-20T14:16:22;13.00;;;7.57;;
54909;SDS011;63189;51.240;9.964;2022-11-20T14:18:49;12.70;;;7.15;;
54909;SDS011;63189;51.240;9.964;2022-11-20T14:24:02;12.27;;;6.40;;
54909;SDS011;63189;51.240;9.964;2022-11-20T14:26:28;13.02;;;7.35;;
54909;SDS011;63189;51.240;9.964;2022-11-20T14:28:54;14.23;;;7.90;;
54909;SDS011;63189;51.240;9.964;2022-11-20T14:31:24;13.40;;;7.40;;
54909;SDS011;63189;51.240;9.964;2022-11-20T14:33:51;13.00;;;7.50;;
54909;SDS011;63189;51.240;9.964;2022-11-20T14:36:19;13.68;;;7.63;;
54909;SDS011;63189;51.240;9.964;2022-11-20T14:38:50;13.35;;;7.80;;
54909;SDS011;63189;51.240;9.964;2022-11-20T14:41:26;13.40;;;7.07;;
54909;SDS011;63189;51.240;9.964;2022-11-20T14:44:00;10.40;;;6.35;;
54909;SDS011;63189;51.240;9.964;2022-11-20T14:46:27;11.52;;;6.40;;
54909;SDS011;63189;51.240;9.964;2022-11-20T14:48:55;9.48;;;5.57;;
54909;SDS011;63189;51.240;9.964;2022-11-20T14:51:32;8.55;;;5.53;;
54909;SDS011;63189;51.240;9.964;2022-11-20T14:54:10;9.52;;;5.30;;
54909;SDS011;63189;51.240;9.964;2022-11-20T14:56:39;12.75;;;5.70;;
54909;SDS011;63189;51.240;9.964;2022-11-20T14:59:05;8.52;;;5.00;;
54909;SDS011;63189;51.240;9.964;2022-11-20T15:01:32;8.15;;;4.80;;
54909;SDS011;63189;51.240;9.964;2022-11-20T15:04:05;10.98;;;6.03;;
54909;SDS011;63189;51.240;9.964;2022-11-20T15:06:32;27.75;;;15.00;;
54909;SDS011;63189;51.240;9.964;2022-11-20T15:08:58;14.02;;;7.22;;
54909;SDS011;63189;51.240;9.964;2022-11-20T15:11:28;11.48;;;6.32;;
54909;SDS011;63189;51.240;9.964;2022-11-20T15:13:56;11.52;;;6.47;;
54909;SDS011;63189;51.240;9.964;2022-11-20T15:16:22;15.35;;;8.10;;
54909;SDS011;63189;51.240;9.964;2022-11-20T15:18:48;12.02;;;6.50;;
54909;SDS011;63189;51.240;9.964;2022-11-20T15:21:15;12.45;;;7.40;;
54909;SDS011;63189;51.240;9.964;2022-11-20T15:23:43;17.08;;;9.38;;
54909;SDS011;63189;51.240;9.964;2022-11-20T15:26:10;15.52;;;8.50;;
54909;SDS011;63189;51.240;9.964;2022-11-20T15:28:38;14.65;;;8.20;;
54909;SDS011;63189;51.240;9.964;2022-11-20T15:31:06;14.90;;;8.50;;
54909;SDS011;63189;51.240;9.964;2022-11-20T15:33:32;13.40;;;7.63;;
54909;SDS011;63189;51.240;9.964;2022-11-20T15:35:58;16.45;;;8.40;;
54909;SDS011;63189;51.240;9.964;2022-11-20T15:38:23;16.60;;;8.75;;
54909;SDS011;63189;51.240;9.964;2022-11-20T15:40:49;14.80;;;8.20;;
54909;SDS011;63189;51.240;9.964;2022-11-20T15:43:15;17.25;;;9.10;;
54909;SDS011;63189;51.240;9.964;2022-11-20T15:45:44;15.27;;;8.35;;
54909;SDS011;63189;51.240;9.964;2022-11-20T15:48:19;19.65;;;9.02;;
54909;SDS011;63189;51.240;9.964;2022-11-20T15:55:57;19.95;;;10.15;;
54909;SDS011;63189;51.240;9.964;2022-11-20T15:58:22;25.48;;;11.25;;
54909;SDS011;63189;51.240;9.964;2022-11-20T16:00:49;20.52;;;10.85;;
54909;SDS011;63189;51.240;9.964;2022-11-20T16:03:15;20.58;;;10.02;;
54909;SDS011;63189;51.240;9.964;2022-11-20T16:05:42;23.65;;;11.30;;
54909;SDS011;63189;51.240;9.964;2022-11-20T16:08:07;22.30;;;11.75;;
54909;SDS011;63189;51.240;9.964;2022-11-20T16:10:34;22.60;;;11.25;;
54909;SDS011;63189;51.240;9.964;2022-11-20T16:13:00;21.73;;;11.40;;
54909;SDS011;63189;51.240;9.964;2022-11-20T16:15:45;24.88;;;13.07;;
54909;SDS011;63189;51.240;9.964;2022-11-20T16:18:18;23.05;;;11.70;;
54909;SDS011;63189;51.240;9.964;2022-11-20T16:20:45;23.58;;;12.88;;
54909;SDS011;63189;51.240;9.964;2022-11-20T16:23:12;24.50;;;12.73;;
54909;SDS011;63189;51.240;9.964;2022-11-20T16:25:38;23.92;;;12.15;;